createdAt,value
2023-06-07T00:01:53.490Z,84.64
2023-06-07T00:04:21.881Z,84.76
2023-06-07T00:07:02.034Z,84.86
2023-06-07T00:09:30.679Z,84.74
2023-06-07T00:11:58.971Z,84.87
2023-06-07T00:14:27.691Z,84.87
2023-06-07T00:16:56.133Z,84.85
2023-06-07T00:19:26.632Z,84.85
2023-06-07T00:21:56.985Z,85.04
2023-06-07T00:24:25.763Z,85.16
2023-06-07T00:26:54.040Z,85.01
2023-06-07T00:29:22.306Z,85.17
2023-06-07T00:31:51.933Z,85.26
2023-06-07T00:34:20.252Z,85.29
2023-06-07T00:36:48.573Z,85.25
2023-06-07T00:39:18.165Z,85.37
2023-06-07T00:41:46.469Z,85.44
2023-06-07T00:44:15.191Z,85.34
2023-06-07T00:46:43.609Z,85.52
2023-06-07T00:49:17.418Z,85.23
2023-06-07T00:51:47.089Z,85.12
2023-06-07T00:54:18.758Z,85.12
2023-06-07T00:56:50.614Z,84.98
2023-06-07T00:59:20.266Z,85.01
2023-06-07T01:01:53.246Z,85.13
2023-06-07T01:04:22.328Z,85.15
2023-06-07T01:06:53.343Z,84.96
2023-06-07T01:09:24.115Z,84.71
2023-06-07T01:11:55.427Z,84.64
2023-06-07T01:14:24.463Z,84.77
2023-06-07T01:16:55.184Z,84.69
2023-06-07T01:19:25.922Z,84.63
2023-06-07T01:21:58.607Z,84.63
2023-06-07T01:24:31.817Z,83.99
2023-06-07T01:27:01.339Z,84.24
2023-06-07T01:29:31.100Z,84.09
2023-06-07T01:32:01.176Z,83.88
2023-06-07T01:34:30.803Z,84.24
2023-06-07T01:36:59.208Z,84.16
2023-06-07T01:39:30.669Z,84.09
2023-06-07T01:42:00.659Z,83.83
2023-06-07T01:44:30.397Z,84.23
2023-06-07T01:46:59.157Z,83.84
2023-06-07T01:49:27.415Z,84.09
2023-06-07T01:51:55.622Z,84.20
2023-06-07T01:54:23.992Z,84.17
2023-06-07T01:57:05.512Z,84.20
2023-06-07T01:59:41.247Z,84.29
2023-06-07T02:02:16.682Z,83.92
2023-06-07T02:04:50.060Z,84.02
2023-06-07T02:07:24.809Z,83.96
2023-06-07T02:09:53.937Z,83.77
2023-06-07T02:12:24.610Z,84.09
2023-06-07T02:14:53.797Z,83.98
2023-06-07T02:17:22.582Z,83.75
2023-06-07T02:19:51.136Z,83.98
2023-06-07T02:22:19.450Z,84.14
2023-06-07T02:24:48.631Z,84.14
2023-06-07T02:27:16.859Z,84.03
2023-06-07T02:29:48.515Z,84.41
2023-06-07T02:32:17.708Z,84.26
2023-06-07T02:34:49.081Z,84.37
2023-06-07T02:37:18.848Z,84.45
2023-06-07T02:39:47.118Z,84.40
2023-06-07T02:42:17.118Z,84.26
2023-06-07T02:44:45.593Z,84.64
2023-06-07T02:47:17.020Z,84.33
2023-06-07T02:49:46.130Z,84.52
2023-06-07T02:52:14.477Z,84.49
2023-06-07T02:54:43.492Z,84.43
2023-06-07T02:57:11.903Z,84.71
2023-06-07T02:59:40.724Z,84.71
2023-06-07T03:02:10.059Z,84.77
2023-06-07T03:04:41.681Z,84.68
2023-06-07T03:07:10.513Z,84.77
2023-06-07T03:09:42.227Z,84.94
2023-06-07T03:12:11.774Z,84.98
2023-06-07T03:14:46.501Z,84.63
2023-06-07T03:17:18.282Z,84.50
2023-06-07T03:19:53.244Z,84.51
2023-06-07T03:22:22.776Z,84.42
2023-06-07T03:24:53.327Z,84.62
2023-06-07T03:27:25.234Z,84.43
2023-06-07T03:29:59.465Z,84.63
2023-06-07T03:32:28.056Z,84.81
2023-06-07T03:34:57.818Z,84.63
2023-06-07T03:37:26.405Z,84.48
2023-06-07T03:39:54.953Z,85.14
2023-06-07T03:42:23.244Z,84.76
2023-06-07T03:44:51.612Z,84.83
2023-06-07T03:47:20.634Z,84.91
2023-06-07T03:49:49.181Z,84.87
2023-06-07T03:52:18.942Z,84.77
2023-06-07T03:54:47.948Z,84.56
2023-06-07T03:57:16.464Z,84.88
2023-06-07T03:59:44.771Z,84.79
2023-06-07T04:02:13.076Z,84.55
2023-06-07T04:04:41.413Z,84.40
2023-06-07T04:07:09.994Z,84.24
2023-06-07T04:09:42.248Z,84.11
2023-06-07T04:12:13.177Z,84.45
2023-06-07T04:14:41.655Z,84.20
2023-06-07T04:17:10.077Z,84.47
2023-06-07T04:19:48.214Z,84.26
2023-06-07T04:22:20.752Z,84.34
2023-06-07T04:24:51.104Z,84.22
2023-06-07T04:27:19.770Z,84.33
2023-06-07T04:29:50.558Z,83.59
2023-06-07T04:32:20.873Z,84.02
2023-06-07T04:34:53.247Z,83.53
2023-06-07T04:37:25.882Z,83.42
2023-06-07T04:39:58.231Z,83.48
2023-06-07T04:42:28.448Z,83.23
2023-06-07T04:45:01.595Z,83.23
2023-06-07T04:47:33.623Z,83.41
2023-06-07T04:50:02.617Z,83.58
2023-06-07T04:52:32.716Z,83.58
2023-06-07T04:55:07.188Z,83.28
2023-06-07T04:57:36.796Z,83.32
2023-06-07T05:00:09.373Z,83.26
2023-06-07T05:02:45.271Z,83.05
2023-06-07T05:05:16.075Z,83.18
2023-06-07T05:07:45.608Z,82.87
2023-06-07T05:10:16.298Z,82.95
2023-06-07T05:12:44.799Z,82.78
2023-06-07T05:15:15.614Z,82.85
2023-06-07T05:17:46.930Z,82.87
2023-06-07T05:20:16.406Z,82.86
2023-06-07T05:22:46.408Z,82.59
2023-06-07T05:25:16.327Z,82.91
2023-06-07T05:27:44.782Z,82.66
2023-06-07T05:30:14.052Z,82.35
2023-06-07T05:32:42.334Z,82.60
2023-06-07T05:35:11.357Z,82.70
2023-06-07T05:37:41.575Z,82.77
2023-06-07T05:40:12.172Z,83.09
2023-06-07T05:42:42.188Z,82.99
2023-06-07T05:45:11.676Z,82.66
2023-06-07T05:47:40.445Z,82.71
2023-06-07T05:50:11.210Z,82.49
2023-06-07T05:52:41.599Z,82.65
2023-06-07T05:55:11.587Z,82.17
2023-06-07T05:57:41.364Z,82.36
2023-06-07T06:00:12.553Z,82.25
2023-06-07T06:02:43.183Z,82.03
2023-06-07T06:05:11.730Z,82.11
2023-06-07T06:07:40.285Z,81.43
2023-06-07T06:10:09.207Z,81.44
2023-06-07T06:12:37.487Z,81.35
2023-06-07T06:15:08.501Z,81.62
2023-06-07T06:17:36.849Z,81.42
2023-06-07T06:20:07.000Z,80.94
2023-06-07T06:22:35.985Z,81.07
2023-06-07T06:25:04.603Z,80.07
2023-06-07T06:27:33.774Z,79.92
2023-06-07T06:30:02.815Z,80.20
2023-06-07T06:32:32.920Z,79.80
2023-06-07T06:35:01.205Z,80.29
2023-06-07T06:37:29.774Z,80.17
2023-06-07T06:39:57.996Z,80.05
2023-06-07T06:42:26.347Z,79.28
2023-06-07T06:45:16.783Z,79.19
2023-06-07T06:47:46.520Z,78.90
2023-06-07T06:50:31.259Z,78.72
2023-06-07T06:53:01.860Z,79.24
2023-06-07T06:55:30.572Z,78.66
2023-06-07T06:57:59.014Z,78.14
2023-06-07T07:00:27.324Z,77.91
2023-06-07T07:02:57.447Z,77.77
2023-06-07T07:05:28.007Z,77.47
2023-06-07T07:07:58.834Z,77.34
2023-06-07T07:10:27.266Z,77.75
2023-06-07T07:12:55.524Z,77.29
2023-06-07T07:15:23.817Z,76.63
2023-06-07T07:17:52.937Z,76.12
2023-06-07T07:20:23.474Z,75.89
2023-06-07T07:22:52.485Z,75.79
2023-06-07T07:25:20.720Z,74.75
2023-06-07T07:27:49.049Z,74.28
2023-06-07T07:30:17.521Z,73.92
2023-06-07T07:32:45.862Z,72.49
2023-06-07T07:35:14.374Z,72.05
2023-06-07T07:37:45.339Z,71.57
2023-06-07T07:40:14.479Z,72.08
2023-06-07T07:42:42.715Z,72.55
2023-06-07T07:45:11.997Z,72.38
2023-06-07T07:47:40.341Z,72.28
2023-06-07T07:50:09.210Z,72.38
2023-06-07T07:52:37.771Z,73.01
2023-06-07T07:55:10.252Z,72.76
2023-06-07T07:57:38.555Z,73.00
2023-06-07T08:00:10.775Z,73.13
2023-06-07T08:02:41.937Z,72.29
2023-06-07T08:05:11.027Z,72.16
2023-06-07T08:07:39.269Z,71.93
2023-06-07T08:10:10.502Z,71.03
2023-06-07T08:12:41.692Z,71.25
2023-06-07T08:15:11.401Z,70.41
2023-06-07T08:17:39.728Z,71.03
2023-06-07T08:20:09.564Z,70.29
2023-06-07T08:22:38.960Z,70.23
2023-06-07T08:25:10.238Z,70.57
2023-06-07T08:27:40.964Z,70.57
2023-06-07T08:30:10.463Z,70.52
2023-06-07T08:32:38.736Z,69.71
2023-06-07T08:35:08.852Z,69.75
2023-06-07T08:37:37.171Z,70.81
2023-06-07T08:40:07.605Z,69.43
2023-06-07T08:42:39.688Z,68.37
2023-06-07T08:45:09.046Z,68.52
2023-06-07T08:47:38.562Z,69.81
2023-06-07T08:50:13.713Z,68.94
2023-06-07T08:52:43.722Z,69.69
2023-06-07T08:55:13.405Z,68.55
2023-06-07T08:57:43.185Z,68.84
2023-06-07T09:00:13.545Z,68.30
2023-06-07T09:02:41.893Z,68.83
2023-06-07T09:05:13.212Z,68.23
2023-06-07T09:07:41.533Z,67.48
2023-06-07T09:10:10.444Z,66.69
2023-06-07T09:12:38.686Z,67.99
2023-06-07T09:15:10.168Z,66.65
2023-06-07T09:17:55.654Z,67.11
2023-06-07T09:20:25.915Z,66.14
2023-06-07T09:23:01.595Z,65.98
2023-06-07T09:25:30.298Z,65.54
2023-06-07T09:28:00.034Z,66.16
2023-06-07T09:30:29.802Z,64.63
2023-06-07T09:32:58.858Z,64.24
2023-06-07T09:35:27.321Z,64.29
2023-06-07T09:37:56.050Z,64.39
2023-06-07T09:40:25.520Z,64.62
2023-06-07T09:43:00.992Z,65.10
2023-06-07T09:45:30.762Z,65.07
2023-06-07T09:48:07.494Z,64.58
2023-06-07T09:50:35.977Z,64.96
2023-06-07T09:53:04.277Z,65.43
2023-06-07T09:55:32.882Z,64.99
2023-06-07T09:58:01.200Z,63.79
2023-06-07T10:00:43.000Z,63.86
2023-06-07T10:03:11.524Z,63.44
2023-06-07T10:05:40.635Z,62.73
2023-06-07T10:08:10.395Z,62.95
2023-06-07T10:10:42.018Z,62.53
2023-06-07T10:13:15.068Z,60.93
2023-06-07T10:15:47.565Z,62.19
2023-06-07T10:18:19.396Z,61.89
2023-06-07T10:20:54.422Z,60.77
2023-06-07T10:23:31.100Z,60.54
2023-06-07T10:26:02.453Z,60.59
2023-06-07T10:28:39.160Z,60.74
2023-06-07T10:31:13.946Z,61.95
2023-06-07T10:33:43.190Z,60.80
2023-06-07T10:36:12.445Z,59.40
2023-06-07T10:38:42.332Z,58.38
2023-06-07T10:41:13.285Z,59.28
2023-06-07T10:43:47.878Z,83.37
2023-06-07T10:46:22.858Z,87.52
2023-06-07T10:48:51.732Z,93.41
2023-06-07T10:51:20.861Z,95.39
2023-06-07T10:53:57.023Z,94.30
2023-06-07T10:56:30.321Z,96.00
2023-06-07T10:59:00.456Z,96.70
2023-06-07T11:01:30.150Z,96.90
2023-06-07T11:03:58.572Z,95.97
2023-06-07T11:06:27.738Z,98.46
2023-06-07T11:09:23.539Z,99.74
2023-06-07T11:11:54.591Z,97.76
2023-06-07T11:14:22.992Z,96.07
2023-06-07T11:16:52.655Z,97.14
2023-06-07T11:19:21.014Z,95.73
2023-06-07T11:22:08.883Z,98.13
2023-06-07T11:24:39.264Z,94.98
2023-06-07T11:27:16.910Z,95.64
2023-06-07T11:29:46.509Z,95.46
2023-06-07T11:32:16.475Z,93.59
2023-06-07T11:34:58.050Z,93.34
2023-06-07T11:37:26.468Z,92.43
2023-06-07T11:40:00.771Z,94.69
2023-06-07T11:42:29.178Z,91.20
2023-06-07T11:44:57.564Z,91.76
2023-06-07T11:47:27.319Z,92.27
2023-06-07T11:49:56.224Z,91.96
2023-06-07T11:52:25.624Z,90.55
2023-06-07T11:54:57.055Z,91.09
2023-06-07T11:57:30.700Z,90.79
2023-06-07T11:59:59.106Z,94.06
2023-06-07T12:02:30.544Z,89.63
2023-06-07T12:04:59.483Z,88.47
2023-06-07T12:07:32.620Z,90.30
2023-06-07T12:10:01.543Z,90.78
2023-06-07T12:12:29.857Z,88.57
2023-06-07T12:15:01.899Z,91.73
2023-06-07T12:17:35.958Z,89.70
2023-06-07T12:20:09.777Z,85.67
2023-06-07T12:22:38.396Z,84.55
2023-06-07T12:25:10.868Z,82.07
2023-06-07T12:27:39.720Z,85.13
2023-06-07T12:30:09.351Z,87.16
2023-06-07T12:32:39.194Z,80.67
2023-06-07T12:35:08.996Z,82.02
2023-06-07T12:37:37.682Z,82.43
2023-06-07T12:40:08.329Z,79.47
2023-06-07T12:42:37.384Z,80.71
2023-06-07T12:45:06.582Z,79.98
2023-06-07T12:47:35.189Z,76.79
2023-06-07T12:50:06.444Z,78.21
2023-06-07T12:52:34.932Z,78.82
2023-06-07T12:55:03.585Z,75.63
2023-06-07T12:57:32.212Z,76.30
2023-06-07T13:00:00.452Z,79.24
2023-06-07T13:02:28.997Z,78.95
2023-06-07T13:04:58.202Z,78.45
2023-06-07T13:07:28.588Z,75.44
2023-06-07T13:09:57.010Z,74.77
2023-06-07T13:12:28.650Z,76.85
2023-06-07T13:14:56.932Z,76.03
2023-06-07T13:17:26.198Z,77.78
2023-06-07T13:19:54.656Z,79.67
2023-06-07T13:22:22.973Z,82.65
2023-06-07T13:24:55.563Z,82.10
2023-06-07T13:27:28.246Z,82.20
2023-06-07T13:29:57.823Z,83.36
2023-06-07T13:32:26.121Z,85.09
2023-06-07T13:34:54.402Z,85.80
2023-06-07T13:37:22.722Z,84.57
2023-06-07T13:39:52.317Z,86.28
2023-06-07T13:42:23.065Z,88.39
2023-06-07T13:44:51.447Z,85.48
2023-06-07T13:47:20.552Z,86.96
2023-06-07T13:49:49.512Z,85.93
2023-06-07T13:52:17.973Z,86.04
2023-06-07T13:54:47.905Z,86.72
2023-06-07T13:57:17.636Z,85.80
2023-06-07T13:59:51.206Z,84.49
2023-06-07T14:02:20.859Z,85.15
2023-06-07T14:04:49.738Z,85.13
2023-06-07T14:07:18.284Z,84.23
2023-06-07T14:09:46.755Z,80.11
2023-06-07T14:12:15.136Z,81.07
2023-06-07T14:14:44.828Z,80.19
2023-06-07T14:17:13.085Z,80.99
2023-06-07T14:19:43.063Z,84.58
2023-06-07T14:22:11.356Z,86.51
2023-06-07T14:24:44.355Z,87.86
2023-06-07T14:27:17.958Z,86.23
2023-06-07T14:29:50.485Z,88.34
2023-06-07T14:32:18.855Z,89.66
2023-06-07T14:34:47.196Z,88.12
2023-06-07T14:37:15.540Z,88.14
2023-06-07T14:39:44.410Z,87.38
2023-06-07T14:42:15.749Z,85.38
2023-06-07T14:44:45.466Z,88.83
2023-06-07T14:47:15.822Z,89.74
2023-06-07T14:49:44.153Z,87.49
2023-06-07T14:52:12.418Z,85.53
2023-06-07T14:54:41.238Z,81.66
2023-06-07T14:57:11.030Z,83.22
2023-06-07T14:59:40.286Z,84.00
2023-06-07T15:02:09.276Z,86.90
2023-06-07T15:04:39.330Z,89.38
2023-06-07T15:07:08.081Z,88.01
2023-06-07T15:09:36.803Z,87.62
2023-06-07T15:12:06.800Z,87.65
2023-06-07T15:14:35.131Z,87.34
2023-06-07T15:17:04.639Z,86.82
2023-06-07T15:19:33.143Z,84.23
2023-06-07T15:22:02.925Z,83.20
2023-06-07T15:24:31.167Z,83.04
2023-06-07T15:26:59.468Z,85.76
2023-06-07T15:29:27.736Z,84.49
2023-06-07T15:31:56.108Z,85.80
2023-06-07T15:34:26.624Z,85.73
2023-06-07T15:36:54.897Z,87.06
2023-06-07T15:39:24.856Z,85.56
2023-06-07T15:41:54.735Z,84.42
2023-06-07T15:44:23.150Z,79.28
2023-06-07T15:46:51.564Z,77.76
2023-06-07T15:49:20.205Z,80.75
2023-06-07T15:51:49.746Z,82.15
2023-06-07T15:54:18.143Z,77.92
2023-06-07T15:56:47.805Z,74.83
2023-06-07T15:59:16.136Z,73.60
2023-06-07T16:01:44.510Z,74.24
2023-06-07T16:04:14.105Z,76.42
2023-06-07T16:06:42.411Z,76.28
2023-06-07T16:09:10.788Z,76.70
2023-06-07T16:11:40.599Z,78.65
2023-06-07T16:14:11.585Z,78.75
2023-06-07T16:16:40.223Z,78.21
2023-06-07T16:19:10.578Z,78.70
2023-06-07T16:21:39.926Z,78.01
2023-06-07T16:24:08.960Z,80.01
2023-06-07T16:26:37.419Z,78.58
2023-06-07T16:29:05.953Z,80.07
2023-06-07T16:31:35.987Z,78.53
2023-06-07T16:34:04.524Z,78.66
2023-06-07T16:36:36.623Z,80.55
2023-06-07T16:39:06.858Z,79.69
2023-06-07T16:41:38.330Z,79.23
2023-06-07T16:44:08.524Z,80.45
2023-06-07T16:46:38.453Z,83.07
2023-06-07T16:49:08.080Z,83.52
2023-06-07T16:51:37.541Z,85.61
2023-06-07T16:54:05.935Z,86.85
2023-06-07T16:56:34.216Z,86.95
2023-06-07T16:59:02.555Z,88.69
2023-06-07T17:01:32.245Z,89.79
2023-06-07T17:04:02.411Z,89.75
2023-06-07T17:06:30.809Z,90.57
2023-06-07T17:08:59.125Z,89.24
2023-06-07T17:11:27.708Z,89.22
2023-06-07T17:13:56.063Z,88.77
2023-06-07T17:16:24.522Z,88.92
2023-06-07T17:18:52.788Z,87.97
2023-06-07T17:21:22.461Z,87.06
2023-06-07T17:23:52.074Z,87.75
2023-06-07T17:26:20.814Z,86.91
2023-06-07T17:28:49.113Z,86.51
2023-06-07T17:31:18.043Z,87.61
2023-06-07T17:33:46.342Z,88.65
2023-06-07T17:36:14.726Z,86.99
2023-06-07T17:38:45.657Z,86.33
2023-06-07T17:41:14.943Z,81.17
2023-06-07T17:43:43.211Z,84.30
2023-06-07T17:46:11.565Z,88.95
2023-06-07T17:48:39.923Z,91.93
2023-06-07T17:51:08.220Z,93.07
2023-06-07T17:53:36.644Z,94.01
2023-06-07T17:56:06.526Z,94.93
2023-06-07T17:58:34.826Z,95.39
2023-06-07T18:01:03.130Z,96.41
2023-06-07T18:03:31.619Z,95.94
2023-06-07T18:05:59.957Z,96.09
2023-06-07T18:08:28.244Z,95.62
2023-06-07T18:10:56.782Z,96.10
2023-06-07T18:13:26.489Z,95.10
2023-06-07T18:15:54.883Z,96.01
2023-06-07T18:18:23.148Z,96.19
2023-06-07T18:20:51.380Z,95.65
2023-06-07T18:23:19.849Z,96.05
2023-06-07T18:25:48.318Z,96.45
2023-06-07T18:28:16.643Z,96.71
2023-06-07T18:30:46.359Z,96.65
2023-06-07T18:33:14.722Z,96.81
2023-06-07T18:35:43.202Z,96.81
2023-06-07T18:38:11.453Z,96.80
2023-06-07T18:40:39.755Z,96.76
2023-06-07T18:43:09.545Z,96.67
2023-06-07T18:45:37.840Z,96.88
2023-06-07T18:48:07.929Z,97.16
2023-06-07T18:50:36.493Z,97.35
2023-06-07T18:53:05.675Z,97.58
2023-06-07T18:55:34.438Z,98.13
2023-06-07T18:58:03.188Z,97.89
2023-06-07T19:00:31.758Z,97.76
2023-06-07T19:03:00.193Z,97.39
2023-06-07T19:05:30.021Z,97.43
2023-06-07T19:07:59.990Z,96.89
2023-06-07T19:10:28.573Z,97.44
2023-06-07T19:12:56.965Z,98.32
2023-06-07T19:15:26.217Z,97.74
2023-06-07T19:17:55.021Z,98.04
2023-06-07T19:20:23.358Z,97.30
2023-06-07T19:22:55.719Z,98.10
2023-06-07T19:25:24.706Z,98.24
2023-06-07T19:27:53.744Z,98.68
2023-06-07T19:30:21.988Z,98.74
2023-06-07T19:32:51.669Z,99.05
2023-06-07T19:35:19.958Z,99.15
2023-06-07T19:37:48.223Z,98.58
2023-06-07T19:40:19.008Z,98.90
2023-06-07T19:42:47.312Z,98.90
2023-06-07T19:45:15.806Z,99.01
2023-06-07T19:47:44.295Z,99.31
2023-06-07T19:50:12.840Z,99.27
2023-06-07T19:52:41.977Z,99.46
2023-06-07T19:55:10.765Z,99.88
2023-06-07T19:57:41.200Z,99.52
2023-06-07T20:00:10.680Z,100.02
2023-06-07T20:02:44.115Z,100.36
2023-06-07T20:05:13.592Z,100.72
2023-06-07T20:07:41.867Z,100.26
2023-06-07T20:10:11.344Z,100.34
2023-06-07T20:12:42.216Z,100.38
2023-06-07T20:15:13.412Z,100.57
2023-06-07T20:17:41.873Z,100.33
2023-06-07T20:20:11.409Z,101.44
2023-06-07T20:22:39.765Z,101.12
2023-06-07T20:25:08.846Z,101.03
2023-06-07T20:27:37.464Z,100.32
2023-06-07T20:30:08.909Z,100.89
2023-06-07T20:32:37.886Z,100.80
2023-06-07T20:35:07.042Z,100.65
2023-06-07T20:37:35.358Z,100.55
2023-06-07T20:40:05.484Z,100.06
2023-06-07T20:42:34.033Z,100.45
2023-06-07T20:45:02.370Z,100.63
2023-06-07T20:47:32.001Z,100.74
2023-06-07T20:50:00.278Z,100.79
2023-06-07T20:52:28.546Z,101.24
2023-06-07T20:54:57.241Z,101.22
2023-06-07T20:57:25.621Z,101.51
2023-06-07T20:59:54.305Z,101.50
2023-06-07T21:02:22.760Z,101.63
2023-06-07T21:04:54.594Z,101.70
2023-06-07T21:07:23.000Z,102.01
2023-06-07T21:09:51.301Z,102.10
2023-06-07T21:12:19.915Z,102.15
2023-06-07T21:14:48.812Z,102.34
2023-06-07T21:17:17.115Z,102.83
2023-06-07T21:19:45.419Z,103.12
2023-06-07T21:22:15.179Z,103.43
2023-06-07T21:24:43.568Z,103.43
2023-06-07T21:27:17.633Z,103.31
2023-06-07T21:29:45.879Z,103.23
2023-06-07T21:32:14.127Z,103.22
2023-06-07T21:34:42.590Z,103.48
2023-06-07T21:37:11.998Z,102.89
2023-06-07T21:39:41.678Z,103.31
2023-06-07T21:42:10.345Z,103.23
2023-06-07T21:44:38.660Z,102.78
2023-06-07T21:47:07.477Z,102.27
2023-06-07T21:49:36.601Z,103.11
2023-06-07T21:52:05.280Z,102.80
2023-06-07T21:54:45.421Z,102.76
2023-06-07T21:57:14.080Z,103.18
2023-06-07T21:59:44.120Z,102.79
2023-06-07T22:02:13.033Z,103.27
2023-06-07T22:04:41.412Z,103.02
2023-06-07T22:07:09.817Z,103.21
2023-06-07T22:09:38.385Z,101.02
2023-06-07T22:12:11.372Z,101.67
2023-06-07T22:14:41.715Z,100.57
2023-06-07T22:17:11.003Z,100.90
2023-06-07T22:19:41.860Z,100.00
2023-06-07T22:22:10.216Z,100.35
2023-06-07T22:24:38.715Z,99.64
2023-06-07T22:27:10.290Z,100.36
2023-06-07T22:29:38.712Z,99.58
2023-06-07T22:32:08.617Z,97.37
2023-06-07T22:34:36.978Z,97.53
2023-06-07T22:37:06.246Z,98.53
2023-06-07T22:39:34.691Z,96.75
2023-06-07T22:42:02.981Z,96.65
2023-06-07T22:44:32.822Z,96.29
2023-06-07T22:47:01.313Z,97.16
2023-06-07T22:49:30.290Z,95.45
2023-06-07T22:51:59.868Z,95.41
2023-06-07T22:54:30.319Z,95.86
2023-06-07T22:56:58.785Z,94.14
2023-06-07T22:59:26.991Z,93.53
2023-06-07T23:01:56.647Z,93.49
2023-06-07T23:04:25.360Z,92.38
2023-06-07T23:06:54.205Z,92.84
2023-06-07T23:09:23.040Z,94.55
2023-06-07T23:11:52.124Z,92.98
2023-06-07T23:14:20.457Z,93.49
2023-06-07T23:16:49.885Z,93.46
2023-06-07T23:19:20.476Z,93.33
2023-06-07T23:21:48.855Z,92.76
2023-06-07T23:24:22.377Z,92.63
2023-06-07T23:26:50.612Z,92.51
2023-06-07T23:29:18.844Z,91.58
2023-06-07T23:31:48.944Z,91.82
2023-06-07T23:34:17.324Z,92.08
2023-06-07T23:36:46.954Z,91.45
2023-06-07T23:39:15.435Z,91.19
2023-06-07T23:41:43.703Z,90.98
2023-06-07T23:44:24.706Z,90.95
2023-06-07T23:46:53.138Z,88.98
2023-06-07T23:49:21.664Z,90.13
2023-06-07T23:51:51.371Z,89.93
2023-06-07T23:54:19.665Z,89.09
2023-06-07T23:56:47.874Z,89.19
2023-06-07T23:59:16.392Z,89.48
